sensor_id;sensor_type;location;lat;lon;timestamp;pressure;altitude;pressure_sealevel;temperature;humidity
19590;BME280;12231;42.782;23.388;2023-05-07T00:02:22;59471.19;;;-141.97;100.00
19590;BME280;12231;42.782;23.388;2023-05-07T00:04:48;59471.19;;;-141.97;100.00
19590;BME280;12231;42.782;23.388;2023-05-07T00:07:14;59471.19;;;-141.97;100.00
19590;BME280;12231;42.782;23.388;2023-05-07T00:09:40;59471.19;;;-141.97;100.00
19590;BME280;12231;42.782;23.388;2023-05-07T00:12:05;59471.19;;;-141.97;100.00
19590;BME280;12231;42.782;23.388;2023-05-07T00:14:31;59471.19;;;-141.97;100.00
19590;BME280;12231;42.782;23.388;2023-05-07T00:16:56;59471.19;;;-141.97;100.00
19590;BME280;12231;42.782;23.388;2023-05-07T00:19:22;59471.19;;;-141.97;100.00
19590;BME280;12231;42.782;23.388;2023-05-07T00:21:47;59471.19;;;-141.97;100.00
19590;BME280;12231;42.782;23.388;2023-05-07T00:24:13;59471.19;;;-141.97;100.00
19590;BME280;12231;42.782;23.388;2023-05-07T00:26:38;59471.19;;;-141.97;100.00
19590;BME280;12231;42.782;23.388;2023-05-07T00:29:03;59471.19;;;-141.97;100.00
19590;BME280;12231;42.782;23.388;2023-05-07T00:31:29;59471.19;;;-141.97;100.00
19590;BME280;12231;42.782;23.388;2023-05-07T00:33:54;59471.19;;;-141.97;100.00
19590;BME280;12231;42.782;23.388;2023-05-07T00:36:20;59471.19;;;-141.97;100.00
19590;BME280;12231;42.782;23.388;2023-05-07T00:38:45;59471.19;;;-141.97;100.00
19590;BME280;12231;42.782;23.388;2023-05-07T00:41:10;59471.19;;;-141.97;100.00
19590;BME280;12231;42.782;23.388;2023-05-07T00:43:36;59471.19;;;-141.97;100.00
19590;BME280;12231;42.782;23.388;2023-05-07T00:46:01;59471.19;;;-141.97;100.00
19590;BME280;12231;42.782;23.388;2023-05-07T00:48:27;59471.19;;;-141.97;100.00
19590;BME280;12231;42.782;23.388;2023-05-07T00:50:52;59471.19;;;-141.97;100.00
19590;BME280;12231;42.782;23.388;2023-05-07T00:53:18;59471.19;;;-141.97;100.00
19590;BME280;12231;42.782;23.388;2023-05-07T00:55:44;59471.19;;;-141.97;100.00
19590;BME280;12231;42.782;23.388;2023-05-07T00:58:09;59471.19;;;-141.97;100.00
19590;BME280;12231;42.782;23.388;2023-05-07T01:00:35;59471.19;;;-141.97;100.00
19590;BME280;12231;42.782;23.388;2023-05-07T01:03:01;59471.19;;;-141.97;100.00
19590;BME280;12231;42.782;23.388;2023-05-07T01:05:28;59471.19;;;-141.97;100.00
19590;BME280;12231;42.782;23.388;2023-05-07T01:07:54;59471.19;;;-141.97;100.00
19590;BME280;12231;42.782;23.388;2023-05-07T01:10:20;59471.19;;;-141.97;100.00
19590;BME280;12231;42.782;23.388;2023-05-07T01:12:47;59471.19;;;-141.97;100.00
19590;BME280;12231;42.782;23.388;2023-05-07T01:15:14;59471.19;;;-141.97;100.00
19590;BME280;12231;42.782;23.388;2023-05-07T01:17:41;59471.19;;;-141.97;100.00
19590;BME280;12231;42.782;23.388;2023-05-07T01:20:08;59471.19;;;-141.97;100.00
19590;BME280;12231;42.782;23.388;2023-05-07T01:22:36;59471.19;;;-141.97;100.00
19590;BME280;12231;42.782;23.388;2023-05-07T01:25:03;59471.19;;;-141.97;100.00
19590;BME280;12231;42.782;23.388;2023-05-07T01:27:29;59471.19;;;-141.97;100.00
19590;BME280;12231;42.782;23.388;2023-05-07T01:29:54;59471.19;;;-141.97;100.00
19590;BME280;12231;42.782;23.388;2023-05-07T01:32:30;59471.19;;;-141.97;100.00
19590;BME280;12231;42.782;23.388;2023-05-07T01:34:57;59471.19;;;-141.97;100.00
19590;BME280;12231;42.782;23.388;2023-05-07T01:37:24;59471.19;;;-141.97;100.00
19590;BME280;12231;42.782;23.388;2023-05-07T01:39:50;59471.19;;;-141.97;100.00
19590;BME280;12231;42.782;23.388;2023-05-07T01:42:15;59471.19;;;-141.97;100.00
19590;BME280;12231;42.782;23.388;2023-05-07T01:44:41;59471.19;;;-141.97;100.00
19590;BME280;12231;42.782;23.388;2023-05-07T01:47:07;59471.19;;;-141.97;100.00
19590;BME280;12231;42.782;23.388;2023-05-07T01:49:33;59471.19;;;-141.97;100.00
19590;BME280;12231;42.782;23.388;2023-05-07T01:51:59;59471.19;;;-141.97;100.00
19590;BME280;12231;42.782;23.388;2023-05-07T01:54:26;59471.19;;;-141.97;100.00
19590;BME280;12231;42.782;23.388;2023-05-07T01:56:56;59471.19;;;-141.97;100.00
19590;BME280;12231;42.782;23.388;2023-05-07T01:59:22;59471.19;;;-141.97;100.00
19590;BME280;12231;42.782;23.388;2023-05-07T02:01:47;59471.19;;;-141.97;100.00
19590;BME280;12231;42.782;23.388;2023-05-07T02:04:13;59471.19;;;-141.97;100.00
19590;BME280;12231;42.782;23.388;2023-05-07T02:06:38;59471.19;;;-141.97;100.00
19590;BME280;12231;42.782;23.388;2023-05-07T02:09:04;59471.19;;;-141.97;100.00
19590;BME280;12231;42.782;23.388;2023-05-07T02:11:29;59471.19;;;-141.97;100.00
19590;BME280;12231;42.782;23.388;2023-05-07T02:13:55;59471.19;;;-141.97;100.00
19590;BME280;12231;42.782;23.388;2023-05-07T02:16:20;59471.19;;;-141.97;100.00
19590;BME280;12231;42.782;23.388;2023-05-07T02:18:46;59471.19;;;-141.97;100.00
19590;BME280;12231;42.782;23.388;2023-05-07T02:21:12;59471.19;;;-141.97;100.00
19590;BME280;12231;42.782;23.388;2023-05-07T02:23:37;59471.19;;;-141.97;100.00
19590;BME280;12231;42.782;23.388;2023-05-07T02:26:03;59471.19;;;-141.97;100.00
19590;BME280;12231;42.782;23.388;2023-05-07T02:28:29;59471.19;;;-141.97;100.00
19590;BME280;12231;42.782;23.388;2023-05-07T02:30:54;59471.19;;;-141.97;100.00
19590;BME280;12231;42.782;23.388;2023-05-07T02:33:20;59471.19;;;-141.97;100.00
19590;BME280;12231;42.782;23.388;2023-05-07T02:35:45;59471.19;;;-141.97;100.00
19590;BME280;12231;42.782;23.388;2023-05-07T02:38:11;59471.19;;;-141.97;100.00
19590;BME280;12231;42.782;23.388;2023-05-07T02:40:36;59471.19;;;-141.97;100.00
19590;BME280;12231;42.782;23.388;2023-05-07T02:43:04;59471.19;;;-141.97;100.00
19590;BME280;12231;42.782;23.388;2023-05-07T02:45:31;59471.19;;;-141.97;100.00
19590;BME280;12231;42.782;23.388;2023-05-07T02:47:57;59471.19;;;-141.97;100.00
19590;BME280;12231;42.782;23.388;2023-05-07T02:50:22;59471.19;;;-141.97;100.00
19590;BME280;12231;42.782;23.388;2023-05-07T02:52:48;59471.19;;;-141.97;100.00
19590;BME280;12231;42.782;23.388;2023-05-07T02:55:13;59471.19;;;-141.97;100.00
19590;BME280;12231;42.782;23.388;2023-05-07T02:57:39;59471.19;;;-141.97;100.00
19590;BME280;12231;42.782;23.388;2023-05-07T03:00:15;59471.19;;;-141.97;100.00
19590;BME280;12231;42.782;23.388;2023-05-07T03:02:41;59471.19;;;-141.97;100.00
19590;BME280;12231;42.782;23.388;2023-05-07T03:05:07;59471.19;;;-141.97;100.00
19590;BME280;12231;42.782;23.388;2023-05-07T03:07:33;59471.19;;;-141.97;100.00
19590;BME280;12231;42.782;23.388;2023-05-07T03:09:58;59471.19;;;-141.97;100.00
19590;BME280;12231;42.782;23.388;2023-05-07T03:12:23;59471.19;;;-141.97;100.00
19590;BME280;12231;42.782;23.388;2023-05-07T03:14:49;59471.19;;;-141.97;100.00
19590;BME280;12231;42.782;23.388;2023-05-07T03:17:14;59471.19;;;-141.97;100.00
19590;BME280;12231;42.782;23.388;2023-05-07T03:19:41;59471.19;;;-141.97;100.00
19590;BME280;12231;42.782;23.388;2023-05-07T03:22:06;59471.19;;;-141.97;100.00
19590;BME280;12231;42.782;23.388;2023-05-07T03:24:32;59471.19;;;-141.97;100.00
19590;BME280;12231;42.782;23.388;2023-05-07T03:26:57;59471.19;;;-141.97;100.00
19590;BME280;12231;42.782;23.388;2023-05-07T03:29:23;59471.19;;;-141.97;100.00
19590;BME280;12231;42.782;23.388;2023-05-07T03:31:48;59471.19;;;-141.97;100.00
19590;BME280;12231;42.782;23.388;2023-05-07T03:34:14;59471.19;;;-141.97;100.00
19590;BME280;12231;42.782;23.388;2023-05-07T03:36:42;59471.19;;;-141.97;100.00
19590;BME280;12231;42.782;23.388;2023-05-07T03:39:07;59471.19;;;-141.97;100.00
19590;BME280;12231;42.782;23.388;2023-05-07T03:41:33;59471.19;;;-141.97;100.00
19590;BME280;12231;42.782;23.388;2023-05-07T03:43:58;59471.19;;;-141.97;100.00
19590;BME280;12231;42.782;23.388;2023-05-07T03:46:23;59471.19;;;-141.97;100.00
19590;BME280;12231;42.782;23.388;2023-05-07T03:48:51;59471.19;;;-141.97;100.00
19590;BME280;12231;42.782;23.388;2023-05-07T03:51:16;59471.19;;;-141.97;100.00
19590;BME280;12231;42.782;23.388;2023-05-07T03:53:42;59471.19;;;-141.97;100.00
19590;BME280;12231;42.782;23.388;2023-05-07T03:56:07;59471.19;;;-141.97;100.00
19590;BME280;12231;42.782;23.388;2023-05-07T03:58:32;59471.19;;;-141.97;100.00
19590;BME280;12231;42.782;23.388;2023-05-07T04:00:58;59471.19;;;-141.97;100.00
19590;BME280;12231;42.782;23.388;2023-05-07T04:03:24;59471.19;;;-141.97;100.00
19590;BME280;12231;42.782;23.388;2023-05-07T04:05:49;59471.19;;;-141.97;100.00
19590;BME280;12231;42.782;23.388;2023-05-07T04:08:15;59471.19;;;-141.97;100.00
19590;BME280;12231;42.782;23.388;2023-05-07T04:10:40;59471.19;;;-141.97;100.00
19590;BME280;12231;42.782;23.388;2023-05-07T04:13:05;59471.19;;;-141.97;100.00
19590;BME280;12231;42.782;23.388;2023-05-07T04:15:31;59471.19;;;-141.97;100.00
19590;BME280;12231;42.782;23.388;2023-05-07T04:17:56;59471.19;;;-141.97;100.00
19590;BME280;12231;42.782;23.388;2023-05-07T04:20:22;59471.19;;;-141.97;100.00
19590;BME280;12231;42.782;23.388;2023-05-07T04:22:47;59471.19;;;-141.97;100.00
19590;BME280;12231;42.782;23.388;2023-05-07T04:25:13;59471.19;;;-141.97;100.00
19590;BME280;12231;42.782;23.388;2023-05-07T04:27:38;59471.19;;;-141.97;100.00
19590;BME280;12231;42.782;23.388;2023-05-07T04:30:04;59471.19;;;-141.97;100.00
19590;BME280;12231;42.782;23.388;2023-05-07T04:32:30;59471.19;;;-141.97;100.00
19590;BME280;12231;42.782;23.388;2023-05-07T04:34:56;59471.19;;;-141.97;100.00
19590;BME280;12231;42.782;23.388;2023-05-07T04:37:21;59471.19;;;-141.97;100.00
19590;BME280;12231;42.782;23.388;2023-05-07T04:39:47;59471.19;;;-141.97;100.00
19590;BME280;12231;42.782;23.388;2023-05-07T04:42:16;59471.19;;;-141.97;100.00
19590;BME280;12231;42.782;23.388;2023-05-07T04:44:44;59471.19;;;-141.97;100.00
19590;BME280;12231;42.782;23.388;2023-05-07T04:47:09;59471.19;;;-141.97;100.00
19590;BME280;12231;42.782;23.388;2023-05-07T04:49:36;59471.19;;;-141.97;100.00
19590;BME280;12231;42.782;23.388;2023-05-07T04:52:01;59471.19;;;-141.97;100.00
19590;BME280;12231;42.782;23.388;2023-05-07T04:54:27;59471.19;;;-141.97;100.00
19590;BME280;12231;42.782;23.388;2023-05-07T04:56:52;59471.19;;;-141.97;100.00
19590;BME280;12231;42.782;23.388;2023-05-07T04:59:17;59471.19;;;-141.97;100.00
19590;BME280;12231;42.782;23.388;2023-05-07T05:01:43;59471.19;;;-141.97;100.00
19590;BME280;12231;42.782;23.388;2023-05-07T05:04:08;59471.19;;;-141.97;100.00
19590;BME280;12231;42.782;23.388;2023-05-07T05:06:34;59471.19;;;-141.97;100.00
19590;BME280;12231;42.782;23.388;2023-05-07T05:08:59;59471.19;;;-141.97;100.00
19590;BME280;12231;42.782;23.388;2023-05-07T05:11:24;59471.19;;;-141.97;100.00
19590;BME280;12231;42.782;23.388;2023-05-07T05:13:50;59471.19;;;-141.97;100.00
19590;BME280;12231;42.782;23.388;2023-05-07T05:16:15;59471.19;;;-141.97;100.00
19590;BME280;12231;42.782;23.388;2023-05-07T05:18:41;59471.19;;;-141.97;100.00
19590;BME280;12231;42.782;23.388;2023-05-07T05:21:06;59471.19;;;-141.97;100.00
19590;BME280;12231;42.782;23.388;2023-05-07T05:23:32;59471.19;;;-141.97;100.00
19590;BME280;12231;42.782;23.388;2023-05-07T05:25:57;59471.19;;;-141.97;100.00
19590;BME280;12231;42.782;23.388;2023-05-07T05:28:23;59471.19;;;-141.97;100.00
19590;BME280;12231;42.782;23.388;2023-05-07T05:30:49;59471.19;;;-141.97;100.00
19590;BME280;12231;42.782;23.388;2023-05-07T05:33:15;59471.19;;;-141.97;100.00
19590;BME280;12231;42.782;23.388;2023-05-07T05:35:41;59471.19;;;-141.97;100.00
19590;BME280;12231;42.782;23.388;2023-05-07T05:38:06;59471.19;;;-141.97;100.00
19590;BME280;12231;42.782;23.388;2023-05-07T05:40:31;59471.19;;;-141.97;100.00
19590;BME280;12231;42.782;23.388;2023-05-07T05:42:58;59471.19;;;-141.97;100.00
19590;BME280;12231;42.782;23.388;2023-05-07T05:45:24;59471.19;;;-141.97;100.00
19590;BME280;12231;42.782;23.388;2023-05-07T05:47:49;59471.19;;;-141.97;100.00
19590;BME280;12231;42.782;23.388;2023-05-07T05:50:15;59471.19;;;-141.97;100.00
19590;BME280;12231;42.782;23.388;2023-05-07T05:52:40;59471.19;;;-141.97;100.00
19590;BME280;12231;42.782;23.388;2023-05-07T05:55:06;59471.19;;;-141.97;100.00
19590;BME280;12231;42.782;23.388;2023-05-07T05:57:32;59471.19;;;-141.97;100.00
19590;BME280;12231;42.782;23.388;2023-05-07T05:59:57;59471.19;;;-141.97;100.00
19590;BME280;12231;42.782;23.388;2023-05-07T06:02:23;59471.19;;;-141.97;100.00
19590;BME280;12231;42.782;23.388;2023-05-07T06:04:48;59471.19;;;-141.97;100.00
19590;BME280;12231;42.782;23.388;2023-05-07T06:07:14;59471.19;;;-141.97;100.00
19590;BME280;12231;42.782;23.388;2023-05-07T06:09:39;59471.19;;;-141.97;100.00
19590;BME280;12231;42.782;23.388;2023-05-07T06:12:05;59471.19;;;-141.97;100.00
19590;BME280;12231;42.782;23.388;2023-05-07T06:14:30;59471.19;;;-141.97;100.00
19590;BME280;12231;42.782;23.388;2023-05-07T06:16:56;59471.19;;;-141.97;100.00
19590;BME280;12231;42.782;23.388;2023-05-07T06:19:22;59471.19;;;-141.97;100.00
19590;BME280;12231;42.782;23.388;2023-05-07T06:21:49;59471.19;;;-141.97;100.00
19590;BME280;12231;42.782;23.388;2023-05-07T06:24:14;59471.19;;;-141.97;100.00
19590;BME280;12231;42.782;23.388;2023-05-07T06:26:40;59471.19;;;-141.97;100.00
19590;BME280;12231;42.782;23.388;2023-05-07T06:29:06;59471.19;;;-141.97;100.00
19590;BME280;12231;42.782;23.388;2023-05-07T06:31:31;59471.19;;;-141.97;100.00
19590;BME280;12231;42.782;23.388;2023-05-07T06:33:57;59471.19;;;-141.97;100.00
19590;BME280;12231;42.782;23.388;2023-05-07T06:36:23;59471.19;;;-141.97;100.00
19590;BME280;12231;42.782;23.388;2023-05-07T06:38:49;59471.19;;;-141.97;100.00
19590;BME280;12231;42.782;23.388;2023-05-07T06:41:14;59471.19;;;-141.97;100.00
19590;BME280;12231;42.782;23.388;2023-05-07T06:43:39;59471.19;;;-141.97;100.00
19590;BME280;12231;42.782;23.388;2023-05-07T06:46:05;59471.19;;;-141.97;100.00
19590;BME280;12231;42.782;23.388;2023-05-07T06:48:30;59471.19;;;-141.97;100.00
19590;BME280;12231;42.782;23.388;2023-05-07T06:50:56;59471.19;;;-141.97;100.00
19590;BME280;12231;42.782;23.388;2023-05-07T06:53:23;59471.19;;;-141.97;100.00
19590;BME280;12231;42.782;23.388;2023-05-07T06:55:48;59471.19;;;-141.97;100.00
19590;BME280;12231;42.782;23.388;2023-05-07T06:58:14;59471.19;;;-141.97;100.00
19590;BME280;12231;42.782;23.388;2023-05-07T07:00:40;59471.19;;;-141.97;100.00
19590;BME280;12231;42.782;23.388;2023-05-07T07:03:06;59471.19;;;-141.97;100.00
19590;BME280;12231;42.782;23.388;2023-05-07T07:05:31;59471.19;;;-141.97;100.00
19590;BME280;12231;42.782;23.388;2023-05-07T07:07:57;59471.19;;;-141.97;100.00
19590;BME280;12231;42.782;23.388;2023-05-07T07:10:22;59471.19;;;-141.97;100.00
19590;BME280;12231;42.782;23.388;2023-05-07T07:12:48;59471.19;;;-141.97;100.00
19590;BME280;12231;42.782;23.388;2023-05-07T07:15:14;59471.19;;;-141.97;100.00
19590;BME280;12231;42.782;23.388;2023-05-07T07:17:40;59471.19;;;-141.97;100.00
19590;BME280;12231;42.782;23.388;2023-05-07T07:20:06;59471.19;;;-141.97;100.00
19590;BME280;12231;42.782;23.388;2023-05-07T07:22:31;59471.19;;;-141.97;100.00
19590;BME280;12231;42.782;23.388;2023-05-07T07:24:57;59471.19;;;-141.97;100.00
19590;BME280;12231;42.782;23.388;2023-05-07T07:27:22;59471.19;;;-141.97;100.00
19590;BME280;12231;42.782;23.388;2023-05-07T07:29:49;59471.19;;;-141.97;100.00
19590;BME280;12231;42.782;23.388;2023-05-07T07:32:15;59471.19;;;-141.97;100.00
19590;BME280;12231;42.782;23.388;2023-05-07T07:34:40;59471.19;;;-141.97;100.00
19590;BME280;12231;42.782;23.388;2023-05-07T07:37:05;59471.19;;;-141.97;100.00
19590;BME280;12231;42.782;23.388;2023-05-07T07:39:32;59471.19;;;-141.97;100.00
19590;BME280;12231;42.782;23.388;2023-05-07T07:41:58;59471.19;;;-141.97;100.00
19590;BME280;12231;42.782;23.388;2023-05-07T07:44:23;59471.19;;;-141.97;100.00
19590;BME280;12231;42.782;23.388;2023-05-07T07:46:48;59471.19;;;-141.97;100.00
19590;BME280;12231;42.782;23.388;2023-05-07T07:49:15;59471.19;;;-141.97;100.00
19590;BME280;12231;42.782;23.388;2023-05-07T07:51:40;59471.19;;;-141.97;100.00
19590;BME280;12231;42.782;23.388;2023-05-07T07:54:06;59471.19;;;-141.97;100.00
19590;BME280;12231;42.782;23.388;2023-05-07T07:56:32;59471.19;;;-141.97;100.00
19590;BME280;12231;42.782;23.388;2023-05-07T07:58:58;59471.19;;;-141.97;100.00
19590;BME280;12231;42.782;23.388;2023-05-07T08:01:24;59471.19;;;-141.97;100.00
19590;BME280;12231;42.782;23.388;2023-05-07T08:03:49;59471.19;;;-141.97;100.00
19590;BME280;12231;42.782;23.388;2023-05-07T08:06:15;59471.19;;;-141.97;100.00
19590;BME280;12231;42.782;23.388;2023-05-07T08:08:40;59471.19;;;-141.97;100.00
19590;BME280;12231;42.782;23.388;2023-05-07T08:11:06;59471.19;;;-141.97;100.00
19590;BME280;12231;42.782;23.388;2023-05-07T08:13:31;59471.19;;;-141.97;100.00
19590;BME280;12231;42.782;23.388;2023-05-07T08:15:57;59471.19;;;-141.97;100.00
19590;BME280;12231;42.782;23.388;2023-05-07T08:18:22;59471.19;;;-141.97;100.00
19590;BME280;12231;42.782;23.388;2023-05-07T08:20:50;59471.19;;;-141.97;100.00
19590;BME280;12231;42.782;23.388;2023-05-07T08:23:15;59471.19;;;-141.97;100.00
19590;BME280;12231;42.782;23.388;2023-05-07T08:25:41;59471.19;;;-141.97;100.00
19590;BME280;12231;42.782;23.388;2023-05-07T08:28:08;59471.19;;;-141.97;100.00
19590;BME280;12231;42.782;23.388;2023-05-07T08:30:33;59471.19;;;-141.97;100.00
19590;BME280;12231;42.782;23.388;2023-05-07T08:33:00;59471.19;;;-141.97;100.00
19590;BME280;12231;42.782;23.388;2023-05-07T08:35:25;59471.19;;;-141.97;100.00
19590;BME280;12231;42.782;23.388;2023-05-07T08:37:52;59471.19;;;-141.97;100.00
19590;BME280;12231;42.782;23.388;2023-05-07T08:40:17;59471.19;;;-141.97;100.00
19590;BME280;12231;42.782;23.388;2023-05-07T08:42:44;59471.19;;;-141.97;100.00
19590;BME280;12231;42.782;23.388;2023-05-07T08:45:10;59471.19;;;-141.97;100.00
19590;BME280;12231;42.782;23.388;2023-05-07T08:47:43;59471.19;;;-141.97;100.00
19590;BME280;12231;42.782;23.388;2023-05-07T08:50:11;59471.19;;;-141.97;100.00
19590;BME280;12231;42.782;23.388;2023-05-07T08:52:36;59471.19;;;-141.97;100.00
19590;BME280;12231;42.782;23.388;2023-05-07T08:55:02;59471.19;;;-141.97;100.00
19590;BME280;12231;42.782;23.388;2023-05-07T08:57:28;59471.19;;;-141.97;100.00
19590;BME280;12231;42.782;23.388;2023-05-07T08:59:53;59471.19;;;-141.97;100.00
19590;BME280;12231;42.782;23.388;2023-05-07T09:02:19;59471.19;;;-141.97;100.00
19590;BME280;12231;42.782;23.388;2023-05-07T09:04:45;59471.19;;;-141.97;100.00
19590;BME280;12231;42.782;23.388;2023-05-07T09:07:10;59471.19;;;-141.97;100.00
19590;BME280;12231;42.782;23.388;2023-05-07T09:09:36;59471.19;;;-141.97;100.00
19590;BME280;12231;42.782;23.388;2023-05-07T09:12:02;59471.19;;;-141.97;100.00
19590;BME280;12231;42.782;23.388;2023-05-07T09:14:29;59471.19;;;-141.97;100.00
19590;BME280;12231;42.782;23.388;2023-05-07T09:16:56;59471.19;;;-141.97;100.00
19590;BME280;12231;42.782;23.388;2023-05-07T09:19:26;59471.19;;;-141.97;100.00
19590;BME280;12231;42.782;23.388;2023-05-07T09:21:59;59471.19;;;-141.97;100.00
19590;BME280;12231;42.782;23.388;2023-05-07T09:24:25;59471.19;;;-141.97;100.00
19590;BME280;12231;42.782;23.388;2023-05-07T09:26:51;59471.19;;;-141.97;100.00
19590;BME280;12231;42.782;23.388;2023-05-07T09:29:16;59471.19;;;-141.97;100.00
19590;BME280;12231;42.782;23.388;2023-05-07T09:31:42;59471.19;;;-141.97;100.00
19590;BME280;12231;42.782;23.388;2023-05-07T09:34:08;59471.19;;;-141.97;100.00
19590;BME280;12231;42.782;23.388;2023-05-07T09:36:33;59471.19;;;-141.97;100.00
19590;BME280;12231;42.782;23.388;2023-05-07T09:39:00;59471.19;;;-141.97;100.00
19590;BME280;12231;42.782;23.388;2023-05-07T09:41:26;59471.19;;;-141.97;100.00
19590;BME280;12231;42.782;23.388;2023-05-07T09:43:54;59471.19;;;-141.97;100.00
19590;BME280;12231;42.782;23.388;2023-05-07T09:46:25;59471.19;;;-141.97;100.00
19590;BME280;12231;42.782;23.388;2023-05-07T09:48:55;59471.19;;;-141.97;100.00
19590;BME280;12231;42.782;23.388;2023-05-07T09:51:25;59471.19;;;-141.97;100.00
19590;BME280;12231;42.782;23.388;2023-05-07T09:53:52;59471.19;;;-141.97;100.00
19590;BME280;12231;42.782;23.388;2023-05-07T09:56:19;59471.19;;;-141.97;100.00
19590;BME280;12231;42.782;23.388;2023-05-07T09:58:45;59471.19;;;-141.97;100.00
19590;BME280;12231;42.782;23.388;2023-05-07T10:01:12;59471.19;;;-141.97;100.00
19590;BME280;12231;42.782;23.388;2023-05-07T10:03:41;59471.19;;;-141.97;100.00
19590;BME280;12231;42.782;23.388;2023-05-07T10:06:09;59471.19;;;-141.97;100.00
19590;BME280;12231;42.782;23.388;2023-05-07T10:08:35;59471.19;;;-141.97;100.00
19590;BME280;12231;42.782;23.388;2023-05-07T10:11:01;59471.19;;;-141.97;100.00
19590;BME280;12231;42.782;23.388;2023-05-07T10:13:28;59471.19;;;-141.97;100.00
19590;BME280;12231;42.782;23.388;2023-05-07T10:15:55;59471.19;;;-141.97;100.00
19590;BME280;12231;42.782;23.388;2023-05-07T10:18:21;59471.19;;;-141.97;100.00
19590;BME280;12231;42.782;23.388;2023-05-07T10:21:01;59471.19;;;-141.97;100.00
19590;BME280;12231;42.782;23.388;2023-05-07T10:23:27;59471.19;;;-141.97;100.00
19590;BME280;12231;42.782;23.388;2023-05-07T10:25:55;59471.19;;;-141.97;100.00
19590;BME280;12231;42.782;23.388;2023-05-07T10:28:22;59471.19;;;-141.97;100.00
19590;BME280;12231;42.782;23.388;2023-05-07T10:30:55;59471.19;;;-141.97;100.00
19590;BME280;12231;42.782;23.388;2023-05-07T10:33:28;59471.19;;;-141.97;100.00
19590;BME280;12231;42.782;23.388;2023-05-07T10:35:59;59471.19;;;-141.97;100.00
19590;BME280;12231;42.782;23.388;2023-05-07T10:38:27;59471.19;;;-141.97;100.00
19590;BME280;12231;42.782;23.388;2023-05-07T10:40:53;59471.19;;;-141.97;100.00
19590;BME280;12231;42.782;23.388;2023-05-07T10:43:18;59471.19;;;-141.97;100.00
19590;BME280;12231;42.782;23.388;2023-05-07T10:46:10;59471.19;;;-141.97;100.00
19590;BME280;12231;42.782;23.388;2023-05-07T10:51:36;59471.19;;;-141.97;100.00
19590;BME280;12231;42.782;23.388;2023-05-07T10:54:22;59471.19;;;-141.97;100.00
19590;BME280;12231;42.782;23.388;2023-05-07T10:56:48;59471.19;;;-141.97;100.00
19590;BME280;12231;42.782;23.388;2023-05-07T11:16:34;95621.72;;;28.94;32.05
19590;BME280;12231;42.782;23.388;2023-05-07T11:19:02;95618.88;;;29.02;32.12
19590;BME280;12231;42.782;23.388;2023-05-07T11:21:35;95615.16;;;28.57;32.91
19590;BME280;12231;42.782;23.388;2023-05-07T11:24:01;95614.78;;;28.93;32.52
19590;BME280;12231;42.782;23.388;2023-05-07T11:26:40;95609.38;;;28.41;30.79
19590;BME280;12231;42.782;23.388;2023-05-07T11:29:13;95615.59;;;27.73;33.49
19590;BME280;12231;42.782;23.388;2023-05-07T11:31:39;95605.75;;;27.33;34.08
19590;BME280;12231;42.782;23.388;2023-05-07T11:34:05;95608.47;;;26.90;32.35
19590;BME280;12231;42.782;23.388;2023-05-07T11:36:33;95612.03;;;26.41;32.58
19590;BME280;12231;42.782;23.388;2023-05-07T11:38:58;95605.97;;;26.26;33.69
19590;BME280;12231;42.782;23.388;2023-05-07T11:41:36;95605.38;;;26.09;32.98
19590;BME280;12231;42.782;23.388;2023-05-07T11:44:04;95608.03;;;25.80;34.32
19590;BME280;12231;42.782;23.388;2023-05-07T11:46:29;95606.84;;;25.83;34.93
19590;BME280;12231;42.782;23.388;2023-05-07T11:48:56;95603.97;;;25.63;34.66
19590;BME280;12231;42.782;23.388;2023-05-07T11:51:25;95607.66;;;25.98;33.54
19590;BME280;12231;42.782;23.388;2023-05-07T11:53:53;95600.56;;;26.34;33.79
19590;BME280;12231;42.782;23.388;2023-05-07T11:56:18;95597.19;;;26.82;33.94
19590;BME280;12231;42.782;23.388;2023-05-07T11:58:46;95596.22;;;27.11;32.60
19590;BME280;12231;42.782;23.388;2023-05-07T12:01:13;95601.81;;;26.73;33.67
19590;BME280;12231;42.782;23.388;2023-05-07T12:03:43;95588.84;;;26.64;34.96
19590;BME280;12231;42.782;23.388;2023-05-07T12:06:10;95588.31;;;26.89;34.40
19590;BME280;12231;42.782;23.388;2023-05-07T12:08:38;95587.09;;;26.92;34.31
19590;BME280;12231;42.782;23.388;2023-05-07T12:11:07;95585.09;;;27.49;34.07
19590;BME280;12231;42.782;23.388;2023-05-07T12:13:32;95580.91;;;26.64;35.04
19590;BME280;12231;42.782;23.388;2023-05-07T12:15:58;95581.59;;;26.66;33.22
19590;BME280;12231;42.782;23.388;2023-05-07T12:18:24;95577.22;;;27.28;33.01
19590;BME280;12231;42.782;23.388;2023-05-07T12:20:50;95571.88;;;27.90;32.59
19590;BME280;12231;42.782;23.388;2023-05-07T12:23:16;95567.66;;;28.08;32.01
19590;BME280;12231;42.782;23.388;2023-05-07T12:25:43;95568.78;;;27.46;32.84
19590;BME280;12231;42.782;23.388;2023-05-07T12:28:16;95561.41;;;27.41;30.52
19590;BME280;12231;42.782;23.388;2023-05-07T12:30:43;95562.50;;;27.53;31.41
19590;BME280;12231;42.782;23.388;2023-05-07T12:33:09;95555.34;;;27.20;30.52
19590;BME280;12231;42.782;23.388;2023-05-07T12:35:39;95555.94;;;26.87;32.24
19590;BME280;12231;42.782;23.388;2023-05-07T12:38:14;95554.09;;;26.88;31.37
19590;BME280;12231;42.782;23.388;2023-05-07T12:40:48;95548.53;;;26.76;31.25